sensor_id;sensor_type;location;lat;lon;timestamp;temperature;humidity
44435;DHT22;30138;20.964;105.830;2023-11-21T00:04:45;24.70;79.90
44435;DHT22;30138;20.964;105.830;2023-11-21T00:09:53;24.70;80.00
44435;DHT22;30138;20.964;105.830;2023-11-21T00:15:00;24.70;80.10
44435;DHT22;30138;20.964;105.830;2023-11-21T00:20:08;24.70;80.10
44435;DHT22;30138;20.964;105.830;2023-11-21T00:25:18;24.70;80.10
44435;DHT22;30138;20.964;105.830;2023-11-21T00:30:25;24.70;80.10
44435;DHT22;30138;20.964;105.830;2023-11-21T00:35:32;24.70;80.40
44435;DHT22;30138;20.964;105.830;2023-11-21T00:40:40;24.70;80.50
44435;DHT22;30138;20.964;105.830;2023-11-21T00:45:47;24.70;80.40
44435;DHT22;30138;20.964;105.830;2023-11-21T00:50:54;24.60;80.40
44435;DHT22;30138;20.964;105.830;2023-11-21T00:56:02;24.70;81.20
44435;DHT22;30138;20.964;105.830;2023-11-21T01:01:10;24.70;80.60
44435;DHT22;30138;20.964;105.830;2023-11-21T01:06:16;24.70;80.60
44435;DHT22;30138;20.964;105.830;2023-11-21T01:11:24;24.70;80.10
44435;DHT22;30138;20.964;105.830;2023-11-21T01:16:31;24.80;80.00
44435;DHT22;30138;20.964;105.830;2023-11-21T01:21:39;24.80;79.70
44435;DHT22;30138;20.964;105.830;2023-11-21T01:26:48;24.90;79.70
44435;DHT22;30138;20.964;105.830;2023-11-21T01:31:54;25.00;79.10
44435;DHT22;30138;20.964;105.830;2023-11-21T01:37:01;25.00;79.70
44435;DHT22;30138;20.964;105.830;2023-11-21T01:42:10;25.00;79.60
44435;DHT22;30138;20.964;105.830;2023-11-21T01:47:17;25.10;79.60
44435;DHT22;30138;20.964;105.830;2023-11-21T01:52:24;25.20;79.70
44435;DHT22;30138;20.964;105.830;2023-11-21T01:57:34;25.20;78.90
44435;DHT22;30138;20.964;105.830;2023-11-21T02:02:43;25.30;79.50
44435;DHT22;30138;20.964;105.830;2023-11-21T02:07:49;25.30;79.50
44435;DHT22;30138;20.964;105.830;2023-11-21T02:12:58;25.40;79.60
44435;DHT22;30138;20.964;105.830;2023-11-21T02:18:05;25.40;79.70
44435;DHT22;30138;20.964;105.830;2023-11-21T02:23:15;25.40;79.70
44435;DHT22;30138;20.964;105.830;2023-11-21T02:28:21;25.50;79.70
44435;DHT22;30138;20.964;105.830;2023-11-21T02:33:28;25.50;79.60
44435;DHT22;30138;20.964;105.830;2023-11-21T02:38:38;25.50;79.90
44435;DHT22;30138;20.964;105.830;2023-11-21T02:43:45;25.50;79.80
44435;DHT22;30138;20.964;105.830;2023-11-21T02:48:52;25.60;79.70
44435;DHT22;30138;20.964;105.830;2023-11-21T02:54:00;25.60;79.80
44435;DHT22;30138;20.964;105.830;2023-11-21T02:59:11;25.60;79.50
44435;DHT22;30138;20.964;105.830;2023-11-21T03:04:18;25.60;79.40
44435;DHT22;30138;20.964;105.830;2023-11-21T03:09:27;25.60;79.40
44435;DHT22;30138;20.964;105.830;2023-11-21T03:14:33;25.70;79.80
44435;DHT22;30138;20.964;105.830;2023-11-21T03:19:41;25.70;80.00
44435;DHT22;30138;20.964;105.830;2023-11-21T03:24:49;25.70;80.20
44435;DHT22;30138;20.964;105.830;2023-11-21T03:29:56;25.80;80.20
44435;DHT22;30138;20.964;105.830;2023-11-21T03:35:03;25.80;80.40
44435;DHT22;30138;20.964;105.830;2023-11-21T03:40:13;25.80;83.00
44435;DHT22;30138;20.964;105.830;2023-11-21T03:45:19;26.00;85.10
44435;DHT22;30138;20.964;105.830;2023-11-21T03:50:26;26.00;82.30
44435;DHT22;30138;20.964;105.830;2023-11-21T03:55:36;26.00;82.10
44435;DHT22;30138;20.964;105.830;2023-11-21T04:00:42;26.00;81.90
44435;DHT22;30138;20.964;105.830;2023-11-21T04:05:49;26.00;81.90
44435;DHT22;30138;20.964;105.830;2023-11-21T04:10:57;26.10;81.70
44435;DHT22;30138;20.964;105.830;2023-11-21T04:16:05;26.10;80.20
44435;DHT22;30138;20.964;105.830;2023-11-21T04:21:11;26.10;79.00
44435;DHT22;30138;20.964;105.830;2023-11-21T04:26:21;26.10;78.60
44435;DHT22;30138;20.964;105.830;2023-11-21T04:31:27;26.10;78.50
44435;DHT22;30138;20.964;105.830;2023-11-21T04:36:34;26.10;77.90
44435;DHT22;30138;20.964;105.830;2023-11-21T04:41:44;26.20;77.10
44435;DHT22;30138;20.964;105.830;2023-11-21T04:46:50;26.10;76.90
44435;DHT22;30138;20.964;105.830;2023-11-21T04:51:57;26.20;76.00
44435;DHT22;30138;20.964;105.830;2023-11-21T04:57:06;26.20;76.60
44435;DHT22;30138;20.964;105.830;2023-11-21T05:02:13;26.20;77.10
44435;DHT22;30138;20.964;105.830;2023-11-21T05:07:43;26.20;77.80
44435;DHT22;30138;20.964;105.830;2023-11-21T05:12:52;26.30;77.60
44435;DHT22;30138;20.964;105.830;2023-11-21T05:17:58;26.30;77.20
44435;DHT22;30138;20.964;105.830;2023-11-21T05:23:14;26.30;76.20
44435;DHT22;30138;20.964;105.830;2023-11-21T05:28:23;26.30;75.50
44435;DHT22;30138;20.964;105.830;2023-11-21T05:33:29;26.30;74.90
44435;DHT22;30138;20.964;105.830;2023-11-21T05:38:36;26.30;74.80
44435;DHT22;30138;20.964;105.830;2023-11-21T05:43:45;26.30;73.70
44435;DHT22;30138;20.964;105.830;2023-11-21T05:48:51;26.40;74.00
44435;DHT22;30138;20.964;105.830;2023-11-21T05:53:58;26.40;74.70
44435;DHT22;30138;20.964;105.830;2023-11-21T05:59:07;26.40;74.90
44435;DHT22;30138;20.964;105.830;2023-11-21T06:04:19;26.40;74.60
44435;DHT22;30138;20.964;105.830;2023-11-21T06:09:27;26.40;74.60
44435;DHT22;30138;20.964;105.830;2023-11-21T06:14:36;26.40;74.20
44435;DHT22;30138;20.964;105.830;2023-11-21T06:19:44;26.50;73.50
44435;DHT22;30138;20.964;105.830;2023-11-21T06:24:50;26.50;73.90
44435;DHT22;30138;20.964;105.830;2023-11-21T06:29:59;26.50;73.90
44435;DHT22;30138;20.964;105.830;2023-11-21T06:35:07;26.50;73.50
44435;DHT22;30138;20.964;105.830;2023-11-21T06:40:14;26.60;73.50
44435;DHT22;30138;20.964;105.830;2023-11-21T06:45:23;26.60;73.30
44435;DHT22;30138;20.964;105.830;2023-11-21T06:50:30;26.60;73.30
44435;DHT22;30138;20.964;105.830;2023-11-21T06:55:37;26.60;72.60
44435;DHT22;30138;20.964;105.830;2023-11-21T07:00:46;26.60;72.60
44435;DHT22;30138;20.964;105.830;2023-11-21T07:05:53;26.60;72.10
44435;DHT22;30138;20.964;105.830;2023-11-21T07:11:00;26.60;72.00
44435;DHT22;30138;20.964;105.830;2023-11-21T07:16:09;26.70;72.40
44435;DHT22;30138;20.964;105.830;2023-11-21T07:21:15;26.70;72.30
44435;DHT22;30138;20.964;105.830;2023-11-21T07:26:22;26.70;72.70
44435;DHT22;30138;20.964;105.830;2023-11-21T07:31:31;26.70;72.40
44435;DHT22;30138;20.964;105.830;2023-11-21T07:36:38;26.70;72.30
44435;DHT22;30138;20.964;105.830;2023-11-21T07:41:48;26.70;72.10
44435;DHT22;30138;20.964;105.830;2023-11-21T07:46:58;26.70;72.30
44435;DHT22;30138;20.964;105.830;2023-11-21T07:52:04;26.80;72.70
44435;DHT22;30138;20.964;105.830;2023-11-21T07:57:11;26.80;72.80
44435;DHT22;30138;20.964;105.830;2023-11-21T08:02:19;26.80;73.00
44435;DHT22;30138;20.964;105.830;2023-11-21T08:07:25;26.80;73.00
44435;DHT22;30138;20.964;105.830;2023-11-21T08:12:31;26.80;73.20
44435;DHT22;30138;20.964;105.830;2023-11-21T08:17:39;26.80;73.30
44435;DHT22;30138;20.964;105.830;2023-11-21T08:22:46;26.80;73.30
44435;DHT22;30138;20.964;105.830;2023-11-21T08:27:51;26.80;73.20
44435;DHT22;30138;20.964;105.830;2023-11-21T08:32:59;26.80;73.20
44435;DHT22;30138;20.964;105.830;2023-11-21T08:38:05;26.80;73.40
44435;DHT22;30138;20.964;105.830;2023-11-21T08:43:12;26.80;73.40
44435;DHT22;30138;20.964;105.830;2023-11-21T08:48:21;26.80;73.60
44435;DHT22;30138;20.964;105.830;2023-11-21T08:53:28;26.80;73.60
44435;DHT22;30138;20.964;105.830;2023-11-21T08:58:33;26.80;73.70
44435;DHT22;30138;20.964;105.830;2023-11-21T09:03:42;26.80;74.10
44435;DHT22;30138;20.964;105.830;2023-11-21T09:08:48;26.80;74.10
44435;DHT22;30138;20.964;105.830;2023-11-21T09:13:54;26.80;73.90
44435;DHT22;30138;20.964;105.830;2023-11-21T09:19:02;26.70;73.80
44435;DHT22;30138;20.964;105.830;2023-11-21T09:24:08;26.70;73.90
44435;DHT22;30138;20.964;105.830;2023-11-21T09:29:16;26.70;74.10
44435;DHT22;30138;20.964;105.830;2023-11-21T09:34:24;26.70;73.90
44435;DHT22;30138;20.964;105.830;2023-11-21T09:39:30;26.70;74.10
44435;DHT22;30138;20.964;105.830;2023-11-21T09:44:45;26.70;74.30
44435;DHT22;30138;20.964;105.830;2023-11-21T09:49:56;26.70;74.50
44435;DHT22;30138;20.964;105.830;2023-11-21T09:55:06;26.60;74.30
44435;DHT22;30138;20.964;105.830;2023-11-21T10:00:16;26.70;74.50
44435;DHT22;30138;20.964;105.830;2023-11-21T10:05:25;26.60;74.70
44435;DHT22;30138;20.964;105.830;2023-11-21T10:10:33;26.60;74.80
44435;DHT22;30138;20.964;105.830;2023-11-21T10:15:39;26.60;74.90
44435;DHT22;30138;20.964;105.830;2023-11-21T10:20:53;26.60;75.00
44435;DHT22;30138;20.964;105.830;2023-11-21T10:26:00;26.60;75.10
44435;DHT22;30138;20.964;105.830;2023-11-21T10:31:08;26.60;75.10
44435;DHT22;30138;20.964;105.830;2023-11-21T10:36:25;26.60;75.30
44435;DHT22;30138;20.964;105.830;2023-11-21T10:41:32;26.60;75.40
44435;DHT22;30138;20.964;105.830;2023-11-21T10:46:39;26.60;75.40
44435;DHT22;30138;20.964;105.830;2023-11-21T10:51:48;26.60;75.50
44435;DHT22;30138;20.964;105.830;2023-11-21T10:56:57;26.60;75.70
44435;DHT22;30138;20.964;105.830;2023-11-21T11:02:12;26.60;76.20
44435;DHT22;30138;20.964;105.830;2023-11-21T11:07:30;26.60;76.80
44435;DHT22;30138;20.964;105.830;2023-11-21T11:12:38;26.60;77.20
44435;DHT22;30138;20.964;105.830;2023-11-21T11:17:46;26.60;77.70
44435;DHT22;30138;20.964;105.830;2023-11-21T11:23:04;26.60;78.20
44435;DHT22;30138;20.964;105.830;2023-11-21T11:28:32;26.60;79.00
44435;DHT22;30138;20.964;105.830;2023-11-21T11:33:46;26.60;79.40
44435;DHT22;30138;20.964;105.830;2023-11-21T11:38:58;26.60;79.80
44435;DHT22;30138;20.964;105.830;2023-11-21T11:50:03;26.60;80.40
44435;DHT22;30138;20.964;105.830;2023-11-21T11:55:18;26.60;80.50
44435;DHT22;30138;20.964;105.830;2023-11-21T12:00:34;26.50;80.60
44435;DHT22;30138;20.964;105.830;2023-11-21T12:05:42;26.50;80.70
44435;DHT22;30138;20.964;105.830;2023-11-21T12:10:50;26.50;80.80
44435;DHT22;30138;20.964;105.830;2023-11-21T12:15:57;26.50;80.70
44435;DHT22;30138;20.964;105.830;2023-11-21T12:21:05;26.50;80.10
44435;DHT22;30138;20.964;105.830;2023-11-21T12:26:16;26.50;80.80
44435;DHT22;30138;20.964;105.830;2023-11-21T12:31:22;26.50;80.80
44435;DHT22;30138;20.964;105.830;2023-11-21T12:36:28;26.50;80.90
44435;DHT22;30138;20.964;105.830;2023-11-21T12:41:37;26.50;80.90
44435;DHT22;30138;20.964;105.830;2023-11-21T12:46:44;26.50;80.50
44435;DHT22;30138;20.964;105.830;2023-11-21T12:51:51;26.50;81.20
44435;DHT22;30138;20.964;105.830;2023-11-21T12:57:02;26.50;81.30
44435;DHT22;30138;20.964;105.830;2023-11-21T13:02:13;26.50;81.30
44435;DHT22;30138;20.964;105.830;2023-11-21T13:07:19;26.50;81.30
44435;DHT22;30138;20.964;105.830;2023-11-21T13:12:27;26.40;80.50
44435;DHT22;30138;20.964;105.830;2023-11-21T13:17:37;26.40;80.50
44435;DHT22;30138;20.964;105.830;2023-11-21T13:22:47;26.40;81.10
44435;DHT22;30138;20.964;105.830;2023-11-21T13:27:58;26.40;81.00
44435;DHT22;30138;20.964;105.830;2023-11-21T13:33:05;26.40;81.00
44435;DHT22;30138;20.964;105.830;2023-11-21T13:38:13;26.40;81.10
44435;DHT22;30138;20.964;105.830;2023-11-21T13:43:22;26.40;80.60
44435;DHT22;30138;20.964;105.830;2023-11-21T13:48:31;26.40;81.30
44435;DHT22;30138;20.964;105.830;2023-11-21T13:53:45;26.40;81.30
44435;DHT22;30138;20.964;105.830;2023-11-21T13:58:56;26.40;81.40
44435;DHT22;30138;20.964;105.830;2023-11-21T14:04:12;26.30;81.40
44435;DHT22;30138;20.964;105.830;2023-11-21T14:09:34;26.30;81.50
44435;DHT22;30138;20.964;105.830;2023-11-21T14:14:51;26.30;81.50
44435;DHT22;30138;20.964;105.830;2023-11-21T14:19:59;26.30;81.40
44435;DHT22;30138;20.964;105.830;2023-11-21T14:25:08;26.30;81.30
44435;DHT22;30138;20.964;105.830;2023-11-21T14:30:19;26.30;81.20
44435;DHT22;30138;20.964;105.830;2023-11-21T14:35:25;26.30;81.00
44435;DHT22;30138;20.964;105.830;2023-11-21T14:40:33;26.30;81.10
44435;DHT22;30138;20.964;105.830;2023-11-21T14:45:42;26.30;80.50
44435;DHT22;30138;20.964;105.830;2023-11-21T14:50:49;26.30;81.10
44435;DHT22;30138;20.964;105.830;2023-11-21T14:56:24;26.30;81.20
44435;DHT22;30138;20.964;105.830;2023-11-21T15:01:35;26.20;81.30
44435;DHT22;30138;20.964;105.830;2023-11-21T15:06:47;26.20;81.50
44435;DHT22;30138;20.964;105.830;2023-11-21T15:11:56;26.20;81.60
44435;DHT22;30138;20.964;105.830;2023-11-21T15:17:14;26.20;81.60
44435;DHT22;30138;20.964;105.830;2023-11-21T15:22:25;26.20;81.70
44435;DHT22;30138;20.964;105.830;2023-11-21T15:27:33;26.20;81.80
44435;DHT22;30138;20.964;105.830;2023-11-21T15:32:41;26.20;82.00
44435;DHT22;30138;20.964;105.830;2023-11-21T15:37:47;26.10;82.10
44435;DHT22;30138;20.964;105.830;2023-11-21T15:42:54;26.20;82.30
44435;DHT22;30138;20.964;105.830;2023-11-21T15:48:03;26.10;82.60
44435;DHT22;30138;20.964;105.830;2023-11-21T15:53:12;26.10;82.90
44435;DHT22;30138;20.964;105.830;2023-11-21T15:58:18;26.10;82.90
44435;DHT22;30138;20.964;105.830;2023-11-21T16:03:26;26.10;83.00
44435;DHT22;30138;20.964;105.830;2023-11-21T16:08:33;26.10;83.20
44435;DHT22;30138;20.964;105.830;2023-11-21T16:13:40;26.10;83.20
44435;DHT22;30138;20.964;105.830;2023-11-21T16:18:50;26.10;83.30
44435;DHT22;30138;20.964;105.830;2023-11-21T16:23:57;26.10;83.30
44435;DHT22;30138;20.964;105.830;2023-11-21T16:29:04;26.10;83.20
44435;DHT22;30138;20.964;105.830;2023-11-21T16:34:15;26.00;83.20
44435;DHT22;30138;20.964;105.830;2023-11-21T16:39:22;26.00;83.10
44435;DHT22;30138;20.964;105.830;2023-11-21T16:44:28;26.00;83.10
44435;DHT22;30138;20.964;105.830;2023-11-21T16:49:36;26.00;83.20
44435;DHT22;30138;20.964;105.830;2023-11-21T16:54:45;26.00;83.50
44435;DHT22;30138;20.964;105.830;2023-11-21T16:59:52;26.00;83.50
44435;DHT22;30138;20.964;105.830;2023-11-21T17:05:00;26.00;83.70
44435;DHT22;30138;20.964;105.830;2023-11-21T17:10:09;26.00;83.80
44435;DHT22;30138;20.964;105.830;2023-11-21T17:15:15;26.00;84.00
44435;DHT22;30138;20.964;105.830;2023-11-21T17:20:24;26.00;84.20
44435;DHT22;30138;20.964;105.830;2023-11-21T17:25:31;25.90;84.20
44435;DHT22;30138;20.964;105.830;2023-11-21T17:30:38;25.90;84.30
44435;DHT22;30138;20.964;105.830;2023-11-21T17:35:46;25.90;85.10
44435;DHT22;30138;20.964;105.830;2023-11-21T17:40:53;25.90;84.40
44435;DHT22;30138;20.964;105.830;2023-11-21T17:46:00;25.90;84.60
44435;DHT22;30138;20.964;105.830;2023-11-21T17:51:08;25.90;84.70
44435;DHT22;30138;20.964;105.830;2023-11-21T17:56:15;25.90;84.80
44435;DHT22;30138;20.964;105.830;2023-11-21T18:01:22;25.90;85.00
44435;DHT22;30138;20.964;105.830;2023-11-21T18:06:38;25.90;85.20
44435;DHT22;30138;20.964;105.830;2023-11-21T18:11:46;25.80;85.20
44435;DHT22;30138;20.964;105.830;2023-11-21T18:16:52;25.90;85.50
44435;DHT22;30138;20.964;105.830;2023-11-21T18:22:00;25.80;85.70
44435;DHT22;30138;20.964;105.830;2023-11-21T18:27:07;25.80;85.80
44435;DHT22;30138;20.964;105.830;2023-11-21T18:32:14;25.80;86.00
44435;DHT22;30138;20.964;105.830;2023-11-21T18:37:24;25.80;86.10
44435;DHT22;30138;20.964;105.830;2023-11-21T18:42:32;25.80;86.20
44435;DHT22;30138;20.964;105.830;2023-11-21T18:47:39;25.80;86.30
44435;DHT22;30138;20.964;105.830;2023-11-21T18:52:47;25.80;86.30
44435;DHT22;30138;20.964;105.830;2023-11-21T18:57:54;25.80;86.30
44435;DHT22;30138;20.964;105.830;2023-11-21T19:03:01;25.80;86.30
44435;DHT22;30138;20.964;105.830;2023-11-21T19:08:10;25.80;86.40
44435;DHT22;30138;20.964;105.830;2023-11-21T19:13:17;25.80;86.30
44435;DHT22;30138;20.964;105.830;2023-11-21T19:18:25;25.80;86.30
44435;DHT22;30138;20.964;105.830;2023-11-21T19:23:34;25.80;86.40
44435;DHT22;30138;20.964;105.830;2023-11-21T19:28:41;25.70;86.30
44435;DHT22;30138;20.964;105.830;2023-11-21T19:33:47;25.70;86.50
44435;DHT22;30138;20.964;105.830;2023-11-21T19:38:57;25.70;86.70
44435;DHT22;30138;20.964;105.830;2023-11-21T19:44:03;25.70;86.80
44435;DHT22;30138;20.964;105.830;2023-11-21T19:49:10;25.70;87.00
44435;DHT22;30138;20.964;105.830;2023-11-21T19:54:18;25.70;87.30
44435;DHT22;30138;20.964;105.830;2023-11-21T19:59:25;25.70;87.60
44435;DHT22;30138;20.964;105.830;2023-11-21T20:04:32;25.60;87.70
44435;DHT22;30138;20.964;105.830;2023-11-21T20:09:42;25.70;88.00
44435;DHT22;30138;20.964;105.830;2023-11-21T20:14:48;25.60;88.20
44435;DHT22;30138;20.964;105.830;2023-11-21T20:19:55;25.60;88.40
44435;DHT22;30138;20.964;105.830;2023-11-21T20:25:02;25.60;88.50
44435;DHT22;30138;20.964;105.830;2023-11-21T20:30:10;25.60;88.60
44435;DHT22;30138;20.964;105.830;2023-11-21T20:35:16;25.60;88.60
44435;DHT22;30138;20.964;105.830;2023-11-21T20:40:24;25.60;88.70
44435;DHT22;30138;20.964;105.830;2023-11-21T20:45:30;25.60;88.70
44435;DHT22;30138;20.964;105.830;2023-11-21T20:50:35;25.60;88.80
44435;DHT22;30138;20.964;105.830;2023-11-21T20:55:44;25.60;88.90
44435;DHT22;30138;20.964;105.830;2023-11-21T21:00:51;25.60;88.90
44435;DHT22;30138;20.964;105.830;2023-11-21T21:05:58;25.60;89.10
44435;DHT22;30138;20.964;105.830;2023-11-21T21:11:05;25.60;89.20
44435;DHT22;30138;20.964;105.830;2023-11-21T21:16:12;25.60;89.20
44435;DHT22;30138;20.964;105.830;2023-11-21T21:21:18;25.50;89.10
44435;DHT22;30138;20.964;105.830;2023-11-21T21:26:27;25.50;89.10
44435;DHT22;30138;20.964;105.830;2023-11-21T21:31:34;25.50;89.10
44435;DHT22;30138;20.964;105.830;2023-11-21T21:36:41;25.50;89.10
44435;DHT22;30138;20.964;105.830;2023-11-21T21:41:50;25.50;89.20
44435;DHT22;30138;20.964;105.830;2023-11-21T21:46:57;25.50;89.20
44435;DHT22;30138;20.964;105.830;2023-11-21T21:52:04;25.50;89.20
44435;DHT22;30138;20.964;105.830;2023-11-21T21:57:12;25.50;89.40
44435;DHT22;30138;20.964;105.830;2023-11-21T22:02:18;25.40;89.30
44435;DHT22;30138;20.964;105.830;2023-11-21T22:07:24;25.40;89.50
44435;DHT22;30138;20.964;105.830;2023-11-21T22:12:33;25.40;89.60
44435;DHT22;30138;20.964;105.830;2023-11-21T22:17:38;25.40;89.80
44435;DHT22;30138;20.964;105.830;2023-11-21T22:22:46;25.40;90.00
44435;DHT22;30138;20.964;105.830;2023-11-21T22:27:55;25.40;90.00
44435;DHT22;30138;20.964;105.830;2023-11-21T22:33:02;25.40;90.10
44435;DHT22;30138;20.964;105.830;2023-11-21T22:38:08;25.40;90.20
44435;DHT22;30138;20.964;105.830;2023-11-21T22:43:19;25.40;90.20
44435;DHT22;30138;20.964;105.830;2023-11-21T22:48:25;25.40;90.30
44435;DHT22;30138;20.964;105.830;2023-11-21T22:53:31;25.40;90.30
44435;DHT22;30138;20.964;105.830;2023-11-21T22:58:40;25.40;90.40
44435;DHT22;30138;20.964;105.830;2023-11-21T23:03:46;25.40;90.50
44435;DHT22;30138;20.964;105.830;2023-11-21T23:08:54;25.30;90.40
44435;DHT22;30138;20.964;105.830;2023-11-21T23:14:02;25.30;90.50
44435;DHT22;30138;20.964;105.830;2023-11-21T23:19:08;25.30;90.60
44435;DHT22;30138;20.964;105.830;2023-11-21T23:24:18;25.30;90.60
44435;DHT22;30138;20.964;105.830;2023-11-21T23:29:27;25.30;90.70
44435;DHT22;30138;20.964;105.830;2023-11-21T23:34:34;25.30;90.70
44435;DHT22;30138;20.964;105.830;2023-11-21T23:39:42;25.30;90.80
44435;DHT22;30138;20.964;105.830;2023-11-21T23:44:50;25.30;90.90
44435;DHT22;30138;20.964;105.830;2023-11-21T23:49:58;25.20;90.90
44435;DHT22;30138;20.964;105.830;2023-11-21T23:55:07;25.20;91.00
